| time (UTC) | temp C | wind direction | speed KPH | gust KPH | rain 1hr cm | rain 24hr cm | rain mn cm | humidity % | barometer mb |
| 20260503181042 | 23 | 190 | 8.0 | 14.5 | 0.00 | 0.00 | 0.00 | 44 | 1014.4 |
| 20260503175017 | 22 | 130 | 4.8 | 12.9 | 0.00 | 0.00 | 0.00 | 45 | 1014.5 |
| 20260503174017 | 22 | 165 | 3.2 | 8.0 | 0.00 | 0.00 | 0.00 | 41 | 1014.6 |
| 20260503173017 | 21 | 158 | 4.8 | 8.0 | 0.00 | 0.00 | 0.00 | 43 | 1014.6 |
| 20260503172038 | 21 | 138 | 3.2 | 9.7 | 0.00 | 0.00 | 0.00 | 45 | 1014.8 |
| 20260503171018 | 20 | 186 | 0.0 | 8.0 | 0.00 | 0.00 | 0.00 | 52 | 1014.9 |
| 20260503131022 | 12 | 0.0 | 0.0 | 0.00 | 0.00 | 0.00 | 71 | 1015.2 | |
| 20260503081027 | 16 | 239 | 1.6 | 3.2 | 0.00 | 0.00 | 0.00 | 62 | 1014.9 |
| 20260503072028 | 16 | 278 | 0.0 | 1.6 | 0.00 | 0.00 | 0.00 | 57 | 1014.8 |
| 20260503071029 | 17 | 272 | 0.0 | 3.2 | 0.00 | 0.00 | 0.00 | 56 | 1014.7 |
| 20260503055029 | 18 | 324 | 0.0 | 3.2 | 0.00 | 0.00 | 0.00 | 53 | 1014.3 |
| 20260503054030 | 18 | 336 | 1.6 | 6.4 | 0.00 | 0.00 | 0.00 | 54 | 1014.2 |
| 20260503053050 | 18 | 318 | 1.6 | 4.8 | 0.00 | 0.00 | 0.00 | 59 | 1014.2 |
| 20260503052030 | 17 | 315 | 1.6 | 4.8 | 0.00 | 0.00 | 0.00 | 59 | 1014.2 |
| 20260503051030 | 18 | 267 | 0.0 | 3.2 | 0.00 | 0.00 | 0.00 | 59 | 1014.2 |
| 20260503050016 | 18 | 205 | 1.6 | 3.2 | 0.00 | 0.00 | 0.00 | 60 | 1014.2 |
| 20260503045016 | 18 | 308 | 0.0 | 1.6 | 0.00 | 0.00 | 0.00 | 58 | 1014.0 |
| 20260503044016 | 18 | 336 | 1.6 | 6.4 | 0.00 | 0.00 | 0.00 | 56 | 1014.0 |
| 20260503043016 | 18 | 234 | 0.0 | 3.2 | 0.00 | 0.00 | 0.00 | 59 | 1014.0 |
| 20260503042017 | 19 | 300 | 3.2 | 4.8 | 0.00 | 0.00 | 0.00 | 57 | 1013.9 |
| 20260503041017 | 19 | 0.0 | 0.0 | 0.00 | 0.00 | 0.00 | 56 | 1013.9 | |
| 20260503040017 | 20 | 0.0 | 0.0 | 0.00 | 0.00 | 0.00 | 55 | 1013.7 | |
| 20260503035017 | 20 | 289 | 0.0 | 3.2 | 0.00 | 0.00 | 0.00 | 54 | 1013.6 |
| 20260503034017 | 20 | 0.0 | 0.0 | 0.00 | 0.00 | 0.00 | 53 | 1013.4 | |
| 20260503033018 | 21 | 348 | 1.6 | 4.8 | 0.00 | 0.00 | 0.00 | 53 | 1013.3 |
| 20260503032017 | 21 | 300 | 0.0 | 3.2 | 0.00 | 0.00 | 0.00 | 51 | 1013.2 |
| 20260503031018 | 21 | 294 | 1.6 | 6.4 | 0.00 | 0.00 | 0.00 | 49 | 1013.2 |
| 20260503030018 | 22 | 272 | 0.0 | 4.8 | 0.00 | 0.00 | 0.00 | 48 | 1013.2 |
| 20260503025018 | 22 | 0.0 | 0.0 | 0.00 | 0.00 | 0.00 | 47 | 1013.1 | |
| 20260503024018 | 23 | 0.0 | 0.0 | 0.00 | 0.00 | 0.00 | 45 | 1013.1 | |
| 20260503023016 | 23 | 201 | 0.0 | 6.4 | 0.00 | 0.00 | 0.00 | 43 | 1013.1 |
| 20260503022016 | 23 | 235 | 1.6 | 6.4 | 0.00 | 0.00 | 0.00 | 42 | 1013.1 |
| 20260503021016 | 23 | 206 | 1.6 | 8.0 | 0.00 | 0.00 | 0.00 | 42 | 1013.2 |
| 20260503020037 | 23 | 224 | 4.8 | 11.3 | 0.00 | 0.00 | 0.00 | 41 | 1013.2 |
| 20260503015016 | 24 | 218 | 3.2 | 14.5 | 0.00 | 0.00 | 0.00 | 41 | 1013.3 |
| 20260503014017 | 24 | 205 | 3.2 | 6.4 | 0.00 | 0.00 | 0.00 | 41 | 1013.4 |
| 20260503013017 | 25 | 230 | 3.2 | 11.3 | 0.00 | 0.00 | 0.00 | 39 | 1013.5 |
| 20260503012017 | 25 | 225 | 3.2 | 8.0 | 0.00 | 0.00 | 0.00 | 39 | 1013.5 |
| 20260503011018 | 25 | 223 | 4.8 | 11.3 | 0.00 | 0.00 | 0.00 | 38 | 1013.6 |
| 20260503010058 | 25 | 228 | 4.8 | 12.9 | 0.00 | 0.00 | 0.00 | 37 | 1013.6 |
| 20260503005018 | 25 | 227 | 8.0 | 19.3 | 0.00 | 0.00 | 0.00 | 38 | 1013.7 |
| 20260503004017 | 25 | 218 | 6.4 | 14.5 | 0.00 | 0.00 | 0.00 | 39 | 1013.7 |
| 20260503003018 | 26 | 213 | 4.8 | 16.1 | 0.00 | 0.00 | 0.00 | 39 | 1013.8 |
| 20260503002018 | 26 | 232 | 6.4 | 14.5 | 0.00 | 0.00 | 0.00 | 38 | 1013.9 |
| 20260503001018 | 26 | 225 | 8.0 | 19.3 | 0.00 | 0.00 | 0.00 | 37 | 1013.9 |
| 20260503000016 | 26 | 207 | 6.4 | 12.9 | 0.00 | 0.00 | 0.00 | 37 | 1014.0 |
| 20260502235016 | 26 | 190 | 4.8 | 11.3 | 0.00 | 0.00 | 0.00 | 38 | 1014.1 |
| 20260502234016 | 25 | 214 | 8.0 | 17.7 | 0.00 | 0.00 | 0.00 | 38 | 1014.2 |
| 20260502233016 | 26 | 209 | 4.8 | 14.5 | 0.00 | 0.00 | 0.00 | 38 | 1014.3 |
| 20260502232016 | 25 | 236 | 4.8 | 12.9 | 0.00 | 0.00 | 0.00 | 37 | 1014.4 |
| 20260502231017 | 25 | 225 | 4.8 | 12.9 | 0.00 | 0.00 | 0.00 | 38 | 1014.5 |
| 20260502230017 | 25 | 233 | 6.4 | 19.3 | 0.00 | 0.00 | 0.00 | 37 | 1014.6 |
| 20260502225017 | 25 | 223 | 6.4 | 16.1 | 0.00 | 0.00 | 0.00 | 40 | 1014.8 |
| 20260502224018 | 25 | 200 | 4.8 | 14.5 | 0.00 | 0.00 | 0.00 | 40 | 1014.9 |
| 20260502223017 | 25 | 228 | 4.8 | 12.9 | 0.00 | 0.00 | 0.00 | 39 | 1015.0 |
| 20260502222017 | 25 | 222 | 6.4 | 14.5 | 0.00 | 0.00 | 0.00 | 38 | 1015.1 |
| 20260502221018 | 25 | 217 | 6.4 | 16.1 | 0.00 | 0.00 | 0.00 | 40 | 1015.3 |
| 20260502220023 | 25 | 282 | 3.2 | 8.0 | 0.00 | 0.00 | 0.00 | 41 | 1015.4 |
| 20260502215059 | 25 | 225 | 4.8 | 12.9 | 0.00 | 0.00 | 0.00 | 42 | 1015.5 |
| 20260502214018 | 25 | 261 | 3.2 | 9.7 | 0.00 | 0.00 | 0.00 | 41 | 1015.7 |
| 20260502213017 | 25 | 200 | 3.2 | 14.5 | 0.00 | 0.00 | 0.00 | 42 | 1015.8 |
| 20260502212019 | 24 | 209 | 8.0 | 16.1 | 0.00 | 0.00 | 0.00 | 45 | 1015.8 |
| 20260502211019 | 24 | 211 | 8.0 | 14.5 | 0.00 | 0.00 | 0.00 | 47 | 1015.8 |
| 20260502210015 | 24 | 204 | 8.0 | 14.5 | 0.00 | 0.00 | 0.00 | 47 | 1015.9 |
| 20260502205016 | 23 | 189 | 6.4 | 14.5 | 0.00 | 0.00 | 0.00 | 50 | 1016.0 |
| 20260502204016 | 23 | 194 | 6.4 | 12.9 | 0.00 | 0.00 | 0.00 | 49 | 1016.1 |
| 20260502203016 | 24 | 189 | 4.8 | 12.9 | 0.00 | 0.00 | 0.00 | 47 | 1016.3 |
| 20260502202016 | 23 | 181 | 6.4 | 14.5 | 0.00 | 0.00 | 0.00 | 49 | 1016.3 |
| 20260502201017 | 23 | 179 | 6.4 | 11.3 | 0.00 | 0.00 | 0.00 | 51 | 1016.5 |
| 20260502200017 | 22 | 187 | 8.0 | 16.1 | 0.00 | 0.00 | 0.00 | 52 | 1016.7 |
| 20260502195017 | 22 | 195 | 8.0 | 16.1 | 0.00 | 0.00 | 0.00 | 53 | 1016.7 |
| 20260502194017 | 22 | 198 | 8.0 | 14.5 | 0.00 | 0.00 | 0.00 | 54 | 1016.9 |
| 20260502193017 | 22 | 184 | 9.7 | 19.3 | 0.00 | 0.00 | 0.00 | 55 | 1017.0 |
| 20260502192017 | 22 | 219 | 8.0 | 14.5 | 0.00 | 0.00 | 0.00 | 55 | 1017.0 |
| 20260502191017 | 22 | 245 | 3.2 | 12.9 | 0.00 | 0.00 | 0.00 | 54 | 1017.1 |
| 20260502190018 | 22 | 186 | 8.0 | 16.1 | 0.00 | 0.00 | 0.00 | 54 | 1017.1 |
| 20260502185018 | 21 | 193 | 9.7 | 19.3 | 0.00 | 0.00 | 0.00 | 55 | 1017.1 |
| 20260502184018 | 21 | 182 | 6.4 | 14.5 | 0.00 | 0.00 | 0.00 | 56 | 1017.2 |
| 20260502183018 | 21 | 190 | 4.8 | 12.9 | 0.00 | 0.00 | 0.00 | 57 | 1017.2 |
| 20260502182019 | 21 | 126 | 3.2 | 11.3 | 0.00 | 0.00 | 0.00 | 58 | 1017.3 |